createdAt,value
2019-03-20T00:01:54.631Z,10.10
2019-03-20T00:04:21.260Z,10.10
2019-03-20T00:06:47.912Z,10.00
2019-03-20T00:09:14.945Z,10.00
2019-03-20T00:11:41.571Z,10.00
2019-03-20T00:14:08.609Z,10.00
2019-03-20T00:16:35.207Z,10.00
2019-03-20T00:19:02.087Z,10.00
2019-03-20T00:21:28.662Z,10.00
2019-03-20T00:23:55.393Z,10.00
2019-03-20T00:26:22.003Z,10.00
2019-03-20T00:28:48.955Z,10.00
2019-03-20T00:31:15.535Z,10.00
2019-03-20T00:33:42.184Z,9.90
2019-03-20T00:36:08.766Z,9.90
2019-03-20T00:38:35.930Z,9.90
2019-03-20T00:41:02.612Z,9.90
2019-03-20T00:43:29.273Z,9.90
2019-03-20T00:45:55.844Z,9.90
2019-03-20T00:48:22.409Z,9.90
2019-03-20T00:50:48.980Z,9.90
2019-03-20T00:53:15.573Z,9.90
2019-03-20T00:55:42.581Z,9.90
2019-03-20T00:58:09.200Z,9.90
2019-03-20T01:00:36.190Z,9.90
2019-03-20T01:03:02.777Z,9.80
2019-03-20T01:05:29.384Z,9.90
2019-03-20T01:07:55.964Z,9.90
2019-03-20T01:10:22.959Z,9.90
2019-03-20T01:12:49.540Z,9.90
2019-03-20T01:15:16.224Z,9.80
2019-03-20T01:17:42.818Z,9.80
2019-03-20T01:20:09.397Z,9.80
2019-03-20T01:22:36.002Z,9.80
2019-03-20T01:25:02.689Z,9.80
2019-03-20T01:27:29.812Z,9.80
2019-03-20T01:29:56.454Z,9.80
2019-03-20T01:32:23.558Z,9.80
2019-03-20T01:34:50.250Z,9.80
2019-03-20T01:37:17.122Z,9.80
2019-03-20T01:39:43.822Z,9.80
2019-03-20T01:42:10.433Z,9.80
2019-03-20T01:44:37.117Z,9.80
2019-03-20T01:47:03.734Z,9.80
2019-03-20T01:49:30.303Z,9.80
2019-03-20T01:51:58.024Z,9.80
2019-03-20T01:54:24.663Z,9.80
2019-03-20T01:56:51.650Z,9.80
2019-03-20T01:59:18.243Z,9.80
2019-03-20T02:01:45.167Z,9.80
2019-03-20T02:04:11.853Z,9.80
2019-03-20T02:06:38.414Z,9.70
2019-03-20T02:09:04.955Z,9.70
2019-03-20T02:11:31.507Z,9.70
2019-03-20T02:13:58.461Z,9.70
2019-03-20T02:16:25.015Z,9.70
2019-03-20T02:18:51.649Z,9.70
2019-03-20T02:21:19.907Z,9.70
2019-03-20T02:23:46.504Z,9.70
2019-03-20T02:26:13.088Z,9.70
2019-03-20T02:28:39.689Z,9.70
2019-03-20T02:33:47.727Z,9.80
2019-03-20T02:36:14.394Z,9.70
2019-03-20T02:38:41.089Z,9.70
2019-03-20T02:41:07.680Z,9.70
2019-03-20T02:43:34.300Z,9.70
2019-03-20T02:46:01.971Z,9.70
2019-03-20T02:48:30.490Z,9.70
2019-03-20T02:50:57.049Z,9.70
2019-03-20T02:53:24.059Z,9.50
2019-03-20T02:55:50.664Z,9.70
2019-03-20T02:58:17.567Z,9.70
2019-03-20T03:00:44.149Z,9.70
2019-03-20T03:03:10.703Z,9.70
2019-03-20T03:05:37.406Z,9.70
2019-03-20T03:08:03.975Z,9.70
2019-03-20T03:10:31.010Z,9.70
2019-03-20T03:12:57.944Z,9.60
2019-03-20T03:15:24.542Z,9.60
2019-03-20T03:17:52.305Z,9.60
2019-03-20T03:20:18.933Z,9.60
2019-03-20T03:22:45.573Z,9.60
2019-03-20T03:25:12.876Z,9.60
2019-03-20T03:27:39.717Z,9.60
2019-03-20T03:30:06.571Z,9.60
2019-03-20T03:32:33.621Z,9.60
2019-03-20T03:35:00.841Z,9.60
2019-03-20T03:37:27.807Z,9.60
2019-03-20T03:39:54.363Z,9.60
2019-03-20T03:42:20.958Z,9.60
2019-03-20T03:44:47.606Z,9.60
2019-03-20T03:47:14.723Z,9.60
2019-03-20T03:49:41.320Z,9.60
2019-03-20T03:52:07.917Z,9.60
2019-03-20T03:54:34.671Z,9.60
2019-03-20T03:57:02.336Z,9.60
2019-03-20T03:59:29.303Z,9.60
2019-03-20T04:01:55.936Z,9.60
2019-03-20T04:04:22.441Z,9.60
2019-03-20T04:06:49.103Z,9.60
2019-03-20T04:09:15.973Z,9.50
2019-03-20T04:11:42.682Z,9.60
2019-03-20T04:14:11.187Z,9.50
2019-03-20T04:16:37.786Z,9.50
2019-03-20T04:19:04.702Z,9.50
2019-03-20T04:21:31.376Z,9.50
2019-03-20T04:23:58.217Z,9.50
2019-03-20T04:26:24.918Z,9.50
2019-03-20T04:28:51.603Z,9.50
2019-03-20T04:31:18.212Z,9.50
2019-03-20T04:33:45.238Z,9.50
2019-03-20T04:36:11.951Z,9.50
2019-03-20T04:38:38.702Z,9.50
2019-03-20T04:41:05.441Z,9.50
2019-03-20T04:43:32.030Z,9.50
2019-03-20T04:46:00.412Z,9.50
2019-03-20T04:48:27.025Z,9.50
2019-03-20T04:50:53.729Z,9.50
2019-03-20T04:53:20.243Z,9.50
2019-03-20T04:55:46.814Z,9.50
2019-03-20T04:58:13.402Z,9.50
2019-03-20T05:00:40.093Z,9.50
2019-03-20T05:03:06.829Z,9.50
2019-03-20T05:05:33.431Z,9.50
2019-03-20T05:07:59.997Z,9.50
2019-03-20T05:10:27.261Z,9.50
2019-03-20T05:12:53.879Z,9.50
2019-03-20T05:15:20.502Z,9.40
2019-03-20T05:17:47.113Z,9.40
2019-03-20T05:20:13.678Z,9.10
2019-03-20T05:22:40.284Z,9.40
2019-03-20T05:25:06.898Z,9.40
2019-03-20T05:27:33.712Z,9.40
2019-03-20T05:30:02.297Z,9.40
2019-03-20T05:32:28.704Z,9.40
2019-03-20T05:34:55.289Z,9.40
2019-03-20T05:37:22.107Z,9.40
2019-03-20T05:39:48.749Z,9.40
2019-03-20T05:42:15.486Z,9.40
2019-03-20T05:44:42.795Z,9.40
2019-03-20T05:47:09.726Z,9.40
2019-03-20T05:49:36.419Z,9.40
2019-03-20T05:52:03.245Z,9.40
2019-03-20T05:54:29.869Z,9.40
2019-03-20T05:56:58.098Z,9.40
2019-03-20T05:59:24.585Z,9.10
2019-03-20T06:01:51.249Z,9.40
2019-03-20T06:04:18.977Z,9.30
2019-03-20T06:06:45.618Z,9.30
2019-03-20T06:09:12.242Z,9.30
2019-03-20T06:11:38.797Z,9.30
2019-03-20T06:14:05.484Z,9.30
2019-03-20T06:16:32.658Z,9.30
2019-03-20T06:18:59.176Z,9.30
2019-03-20T06:21:25.872Z,9.30
2019-03-20T06:23:52.520Z,9.30
2019-03-20T06:26:19.159Z,9.30
2019-03-20T06:31:20.404Z,9.30
2019-03-20T06:33:47.073Z,9.00
2019-03-20T06:36:13.770Z,9.30
2019-03-20T06:38:40.376Z,9.30
2019-03-20T06:41:08.482Z,9.30
2019-03-20T06:43:35.192Z,9.30
2019-03-20T06:46:03.926Z,9.30
2019-03-20T06:48:30.542Z,9.20
2019-03-20T06:50:57.407Z,9.20
2019-03-20T06:53:25.061Z,9.20
2019-03-20T06:55:51.670Z,9.20
2019-03-20T06:58:18.545Z,9.20
2019-03-20T07:00:45.170Z,9.20
2019-03-20T07:03:12.129Z,9.20
2019-03-20T07:05:38.901Z,9.20
2019-03-20T07:08:05.501Z,9.30
2019-03-20T07:10:32.523Z,9.20
2019-03-20T07:13:01.361Z,9.30
2019-03-20T07:15:28.092Z,9.30
2019-03-20T07:17:55.436Z,9.20
2019-03-20T07:20:22.294Z,9.20
2019-03-20T07:22:48.902Z,9.20
2019-03-20T07:25:15.677Z,9.30
2019-03-20T07:27:43.987Z,9.30
2019-03-20T07:30:10.666Z,9.30
2019-03-20T07:32:37.328Z,9.30
2019-03-20T07:35:03.965Z,9.30
2019-03-20T07:37:33.595Z,9.30
2019-03-20T07:39:59.687Z,9.30
2019-03-20T07:42:26.281Z,9.30
2019-03-20T07:44:52.961Z,9.30
2019-03-20T07:47:19.645Z,9.30
2019-03-20T07:49:46.247Z,9.30
2019-03-20T07:52:17.891Z,9.30
2019-03-20T07:54:45.842Z,9.30
2019-03-20T07:57:12.622Z,9.30
2019-03-20T07:59:39.309Z,9.30
2019-03-20T08:02:05.946Z,9.40
2019-03-20T08:04:32.582Z,9.40
2019-03-20T08:06:59.479Z,9.40
2019-03-20T08:09:26.217Z,9.40
2019-03-20T08:11:52.757Z,9.40
2019-03-20T08:14:19.347Z,9.40
2019-03-20T08:16:46.133Z,9.40
2019-03-20T08:19:12.707Z,9.40
2019-03-20T08:21:39.417Z,9.50
2019-03-20T08:24:06.178Z,9.50
2019-03-20T08:26:32.927Z,9.50
2019-03-20T08:28:59.592Z,9.50
2019-03-20T08:31:26.244Z,9.50
2019-03-20T08:33:53.057Z,9.50
2019-03-20T08:36:19.670Z,9.60
2019-03-20T08:38:46.294Z,9.60
2019-03-20T08:41:12.942Z,9.60
2019-03-20T08:43:39.858Z,9.60
2019-03-20T08:46:06.708Z,9.60
2019-03-20T08:48:33.520Z,9.50
2019-03-20T08:51:00.217Z,9.60
2019-03-20T08:53:26.831Z,9.70
2019-03-20T08:55:53.400Z,9.70
2019-03-20T08:58:20.513Z,9.70
2019-03-20T09:00:47.203Z,9.70
2019-03-20T09:03:15.148Z,9.80
2019-03-20T09:05:41.827Z,9.80
2019-03-20T09:08:08.883Z,9.80
2019-03-20T09:10:35.682Z,9.80
2019-03-20T09:13:02.668Z,9.90
2019-03-20T09:15:29.425Z,9.90
2019-03-20T09:17:56.307Z,9.90
2019-03-20T09:20:23.243Z,9.90
2019-03-20T09:22:50.456Z,10.00
2019-03-20T09:25:17.160Z,10.00
2019-03-20T09:27:43.853Z,10.00
2019-03-20T09:30:11.178Z,9.80
2019-03-20T09:32:38.283Z,10.00
2019-03-20T09:35:06.927Z,10.10
2019-03-20T09:37:33.836Z,10.10
2019-03-20T09:40:00.886Z,10.10
2019-03-20T09:42:27.526Z,10.20
2019-03-20T09:44:54.132Z,10.20
2019-03-20T09:47:21.224Z,10.20
2019-03-20T09:49:47.967Z,10.30
2019-03-20T09:52:14.592Z,10.30
2019-03-20T09:54:41.193Z,10.30
2019-03-20T09:57:08.320Z,10.40
2019-03-20T09:59:36.322Z,10.40
2019-03-20T10:02:03.042Z,10.40
2019-03-20T10:04:29.933Z,10.50
2019-03-20T10:06:56.542Z,10.50
2019-03-20T10:09:23.283Z,10.50
2019-03-20T10:11:49.970Z,10.50
2019-03-20T10:14:16.712Z,10.60
2019-03-20T10:16:43.355Z,10.60
2019-03-20T10:19:10.129Z,10.60
2019-03-20T10:21:37.162Z,10.70
2019-03-20T10:24:03.740Z,10.70
2019-03-20T10:26:30.467Z,10.70
2019-03-20T10:28:57.250Z,10.80
2019-03-20T10:31:25.216Z,10.80
2019-03-20T10:33:51.934Z,10.80
2019-03-20T10:36:18.664Z,10.80
2019-03-20T10:38:45.521Z,10.90
2019-03-20T10:41:14.615Z,10.90
2019-03-20T10:43:41.609Z,11.00
2019-03-20T10:46:08.287Z,11.00
2019-03-20T10:48:34.897Z,11.00
2019-03-20T10:51:01.589Z,11.10
2019-03-20T10:53:28.310Z,11.10
2019-03-20T10:55:55.025Z,11.10
2019-03-20T10:58:22.018Z,11.10
2019-03-20T11:00:48.721Z,11.20
2019-03-20T11:03:15.329Z,11.20
2019-03-20T11:05:42.087Z,11.30
2019-03-20T11:08:08.653Z,11.30
2019-03-20T11:10:35.359Z,11.30
2019-03-20T11:13:02.358Z,11.40
2019-03-20T11:15:29.803Z,11.40
2019-03-20T11:17:56.596Z,11.40
2019-03-20T11:20:23.190Z,11.50
2019-03-20T11:22:50.086Z,11.50
2019-03-20T11:25:16.711Z,11.50
2019-03-20T11:27:45.455Z,11.60
2019-03-20T11:30:12.277Z,11.60
2019-03-20T11:32:40.054Z,11.60
2019-03-20T11:35:07.003Z,11.70
2019-03-20T11:37:34.766Z,11.70
2019-03-20T11:40:01.375Z,11.80
2019-03-20T11:42:28.342Z,11.80
2019-03-20T11:44:54.982Z,11.50
2019-03-20T11:47:21.593Z,11.90
2019-03-20T11:49:48.165Z,11.90
2019-03-20T11:52:15.078Z,11.90
2019-03-20T11:54:41.715Z,12.00
2019-03-20T11:57:08.323Z,12.00
2019-03-20T11:59:34.986Z,12.00
2019-03-20T12:02:01.607Z,12.10
2019-03-20T12:04:28.315Z,12.10
2019-03-20T12:06:55.006Z,12.10
2019-03-20T12:09:21.550Z,12.20
2019-03-20T12:11:48.500Z,12.20
2019-03-20T12:14:15.101Z,12.20
2019-03-20T12:16:41.770Z,12.20
2019-03-20T12:19:08.722Z,12.30
2019-03-20T12:21:35.973Z,12.50
2019-03-20T12:24:02.539Z,12.40
2019-03-20T12:26:30.752Z,12.40
2019-03-20T12:28:59.147Z,12.40
2019-03-20T12:31:25.912Z,12.40
2019-03-20T12:33:52.993Z,12.40
2019-03-20T12:36:19.657Z,12.50
2019-03-20T12:38:46.267Z,12.50
2019-03-20T12:41:12.892Z,12.50
2019-03-20T12:43:39.708Z,12.60
2019-03-20T12:46:06.462Z,12.60
2019-03-20T12:48:33.200Z,12.60
2019-03-20T12:50:59.725Z,12.70
2019-03-20T12:53:27.461Z,12.70
2019-03-20T12:55:54.348Z,12.70
2019-03-20T12:58:21.214Z,12.70
2019-03-20T13:03:16.212Z,12.80
2019-03-20T13:05:42.921Z,12.80
2019-03-20T13:08:09.610Z,12.80
2019-03-20T13:10:36.523Z,12.80
2019-03-20T13:13:04.423Z,12.80
2019-03-20T13:15:33.314Z,12.90
2019-03-20T13:17:59.360Z,12.90
2019-03-20T13:20:26.284Z,12.90
2019-03-20T13:22:53.195Z,12.90
2019-03-20T13:25:19.841Z,12.90
2019-03-20T13:27:46.395Z,12.90
2019-03-20T13:30:20.056Z,13.00
2019-03-20T13:32:43.380Z,13.00
2019-03-20T13:35:10.116Z,13.00
2019-03-20T13:37:36.850Z,13.00
2019-03-20T13:40:13.616Z,13.00
2019-03-20T13:42:32.323Z,13.00
2019-03-20T13:45:00.386Z,13.00
2019-03-20T13:47:27.126Z,13.10
2019-03-20T13:49:53.737Z,13.10
2019-03-20T13:52:20.455Z,13.10
2019-03-20T13:54:47.442Z,13.10
2019-03-20T13:57:14.048Z,13.10
2019-03-20T13:59:40.818Z,13.10
2019-03-20T14:02:07.543Z,13.10
2019-03-20T14:04:34.177Z,13.20
2019-03-20T14:07:00.753Z,13.10
2019-03-20T14:09:27.791Z,13.20
2019-03-20T14:11:54.471Z,13.20
2019-03-20T14:14:21.242Z,13.20
2019-03-20T14:16:47.843Z,13.20
2019-03-20T14:19:14.583Z,13.20
2019-03-20T14:21:41.294Z,13.20
2019-03-20T14:24:08.137Z,13.30
2019-03-20T14:26:34.932Z,13.30
2019-03-20T14:29:01.652Z,13.20
2019-03-20T14:31:28.491Z,13.30
2019-03-20T14:33:55.616Z,13.10
2019-03-20T14:36:22.329Z,13.30
2019-03-20T14:38:50.315Z,13.30
2019-03-20T14:41:21.557Z,13.30
2019-03-20T14:43:45.537Z,13.30
2019-03-20T14:46:12.166Z,13.30
2019-03-20T14:48:38.801Z,13.40
2019-03-20T14:51:05.490Z,13.30
2019-03-20T14:53:32.074Z,13.40
2019-03-20T14:55:58.741Z,13.40
2019-03-20T14:58:25.434Z,13.40
2019-03-20T15:00:52.130Z,13.40
2019-03-20T15:03:18.746Z,13.40
2019-03-20T15:05:45.412Z,13.40
2019-03-20T15:08:12.186Z,13.40
2019-03-20T15:10:45.994Z,13.40
2019-03-20T15:13:08.432Z,13.40
2019-03-20T15:15:35.160Z,13.50
2019-03-20T15:18:01.763Z,13.40
2019-03-20T15:20:28.329Z,13.50
2019-03-20T15:22:54.945Z,13.50
2019-03-20T15:25:21.771Z,13.50
2019-03-20T15:27:49.533Z,13.50
2019-03-20T15:30:16.134Z,13.50
2019-03-20T15:32:43.131Z,13.50
2019-03-20T15:35:09.842Z,13.50
2019-03-20T15:37:36.510Z,13.50
2019-03-20T15:40:03.105Z,13.50
2019-03-20T15:42:29.728Z,13.50
2019-03-20T15:44:56.372Z,13.50
2019-03-20T15:47:23.104Z,13.50
2019-03-20T15:49:49.798Z,13.60
2019-03-20T15:52:16.802Z,13.60
2019-03-20T15:54:43.543Z,13.60
2019-03-20T15:57:10.334Z,13.60
2019-03-20T15:59:37.310Z,13.60
2019-03-20T16:02:03.962Z,13.60
2019-03-20T16:04:32.136Z,13.60
2019-03-20T16:06:58.782Z,13.60
2019-03-20T16:09:25.376Z,13.60
2019-03-20T16:11:52.074Z,13.60
2019-03-20T16:14:18.764Z,13.60
2019-03-20T16:16:45.496Z,13.60
2019-03-20T16:19:12.268Z,13.60
2019-03-20T16:21:40.710Z,13.60
2019-03-20T16:24:07.351Z,13.60
2019-03-20T16:26:34.093Z,13.70
2019-03-20T16:29:00.953Z,13.60
2019-03-20T16:31:28.067Z,13.70
2019-03-20T16:33:57.312Z,13.60
2019-03-20T16:36:23.927Z,13.70
2019-03-20T16:38:50.594Z,13.70
2019-03-20T16:41:17.353Z,13.60
2019-03-20T16:43:43.953Z,13.70
2019-03-20T16:46:10.514Z,13.70
2019-03-20T16:48:37.110Z,13.70
2019-03-20T16:51:03.910Z,13.70
2019-03-20T16:53:30.497Z,13.70
2019-03-20T16:55:57.061Z,13.70
2019-03-20T16:58:23.735Z,13.70
2019-03-20T17:00:50.365Z,13.60
2019-03-20T17:03:16.931Z,13.70
2019-03-20T17:05:43.611Z,13.50
2019-03-20T17:08:10.250Z,13.70
2019-03-20T17:10:36.880Z,13.70
2019-03-20T17:13:03.481Z,13.50
2019-03-20T17:15:30.677Z,13.70
2019-03-20T17:17:59.328Z,13.70
2019-03-20T17:20:26.452Z,13.70
2019-03-20T17:22:53.109Z,13.60
2019-03-20T17:25:19.659Z,13.70
2019-03-20T17:27:46.257Z,13.60
2019-03-20T17:30:13.310Z,13.70
2019-03-20T17:32:40.009Z,13.70
2019-03-20T17:35:06.858Z,13.60
2019-03-20T17:37:35.283Z,13.60
2019-03-20T17:40:02.200Z,13.60
2019-03-20T17:42:28.657Z,13.60
2019-03-20T17:44:55.233Z,13.60
2019-03-20T17:47:21.779Z,13.60
2019-03-20T17:49:48.377Z,13.60
2019-03-20T17:52:14.954Z,13.60
2019-03-20T17:54:41.540Z,13.60
2019-03-20T17:57:08.300Z,13.60
2019-03-20T17:59:34.975Z,13.60
2019-03-20T18:02:01.560Z,13.60
2019-03-20T18:04:28.465Z,13.60
2019-03-20T18:06:55.779Z,13.60
2019-03-20T18:09:25.501Z,13.60
2019-03-20T18:11:52.932Z,13.60
2019-03-20T18:14:21.229Z,13.60
2019-03-20T18:16:50.780Z,13.60
2019-03-20T18:19:18.761Z,13.50
2019-03-20T18:22:04.165Z,13.50
2019-03-20T18:24:31.391Z,13.50
2019-03-20T18:26:58.114Z,13.50
2019-03-20T18:29:24.985Z,13.50
2019-03-20T18:31:52.770Z,13.20
2019-03-20T18:34:22.337Z,13.50
2019-03-20T18:36:49.082Z,13.50
2019-03-20T18:39:15.647Z,13.50
2019-03-20T18:41:44.105Z,13.50
2019-03-20T18:44:11.426Z,13.50
2019-03-20T18:46:38.091Z,13.50
2019-03-20T18:49:04.734Z,13.40
2019-03-20T18:51:31.395Z,13.50
2019-03-20T18:53:58.087Z,13.40
2019-03-20T18:56:24.742Z,13.40
2019-03-20T18:58:51.397Z,13.40
2019-03-20T19:01:17.981Z,13.40
2019-03-20T19:03:44.610Z,13.40
2019-03-20T19:06:11.179Z,13.40
2019-03-20T19:08:37.895Z,13.40
2019-03-20T19:11:05.738Z,13.40
2019-03-20T19:13:32.345Z,13.40
2019-03-20T19:15:59.174Z,13.40
2019-03-20T19:18:25.848Z,13.40
2019-03-20T19:20:52.801Z,13.30
2019-03-20T19:23:19.508Z,13.30
2019-03-20T19:25:46.554Z,13.30
2019-03-20T19:28:13.128Z,13.30
2019-03-20T19:30:39.684Z,13.30
2019-03-20T19:33:06.279Z,13.30
2019-03-20T19:35:32.881Z,13.30
2019-03-20T19:37:59.808Z,13.30
2019-03-20T19:40:26.483Z,13.30
2019-03-20T19:42:53.797Z,13.30
2019-03-20T19:45:20.693Z,13.30
2019-03-20T19:47:47.395Z,13.30
2019-03-20T19:50:14.039Z,13.30
2019-03-20T19:53:05.056Z,13.20
2019-03-20T19:55:52.431Z,13.20
2019-03-20T19:58:30.695Z,13.20
2019-03-20T20:01:01.069Z,13.20
2019-03-20T20:03:30.041Z,13.20
2019-03-20T20:06:00.777Z,13.20
2019-03-20T20:08:27.732Z,13.20
2019-03-20T20:10:54.421Z,13.20
2019-03-20T20:13:21.216Z,13.10
2019-03-20T20:15:47.776Z,13.10
2019-03-20T20:18:14.605Z,13.10
2019-03-20T20:20:41.244Z,13.10
2019-03-20T20:23:07.849Z,13.10
2019-03-20T20:25:34.436Z,13.10
2019-03-20T20:28:01.034Z,13.10
2019-03-20T20:30:27.602Z,13.10
2019-03-20T20:32:54.316Z,12.80
2019-03-20T20:35:20.900Z,13.00
2019-03-20T20:37:47.560Z,13.00
2019-03-20T20:40:14.162Z,13.00
2019-03-20T20:42:43.151Z,13.00
2019-03-20T20:45:09.132Z,13.00
2019-03-20T20:47:35.781Z,12.90
2019-03-20T20:50:02.584Z,13.00
2019-03-20T20:52:29.884Z,13.00
2019-03-20T20:54:56.495Z,13.00
2019-03-20T20:57:23.070Z,13.00
2019-03-20T20:59:49.678Z,13.00
2019-03-20T21:02:16.813Z,12.90
2019-03-20T21:04:43.466Z,12.90
2019-03-20T21:07:10.056Z,12.90
2019-03-20T21:09:36.819Z,12.90
2019-03-20T21:12:03.621Z,12.90
2019-03-20T21:14:30.639Z,12.90
2019-03-20T21:16:58.976Z,12.90
2019-03-20T21:19:28.957Z,12.90
2019-03-20T21:21:57.754Z,12.90
2019-03-20T21:24:35.802Z,12.80
2019-03-20T21:27:05.097Z,12.80
2019-03-20T21:29:31.968Z,12.80
2019-03-20T21:31:58.531Z,12.80
2019-03-20T21:34:25.126Z,12.80
2019-03-20T21:36:51.737Z,12.80
2019-03-20T21:39:18.457Z,12.80
2019-03-20T21:41:45.229Z,12.80
2019-03-20T21:44:11.977Z,12.80
2019-03-20T21:46:38.570Z,12.70
2019-03-20T21:49:05.193Z,12.70
2019-03-20T21:51:31.758Z,12.70
2019-03-20T21:53:58.475Z,12.70
2019-03-20T21:56:25.085Z,12.70
2019-03-20T21:58:51.653Z,12.70
2019-03-20T22:01:18.443Z,12.70
2019-03-20T22:03:45.044Z,12.70
2019-03-20T22:06:11.653Z,12.70
2019-03-20T22:08:38.594Z,12.70
2019-03-20T22:11:05.198Z,12.70
2019-03-20T22:13:31.783Z,12.60
2019-03-20T22:15:58.346Z,12.50
2019-03-20T22:18:24.940Z,12.60
2019-03-20T22:20:51.552Z,12.60
2019-03-20T22:23:18.458Z,12.60
2019-03-20T22:25:45.059Z,12.60
2019-03-20T22:28:11.652Z,12.60
2019-03-20T22:30:38.282Z,12.60
2019-03-20T22:33:04.939Z,12.60
2019-03-20T22:35:31.525Z,12.60
2019-03-20T22:37:58.137Z,12.60
2019-03-20T22:40:24.818Z,12.60
2019-03-20T22:42:51.537Z,12.60
2019-03-20T22:45:18.233Z,12.50
2019-03-20T22:47:44.977Z,12.50
2019-03-20T22:50:11.653Z,12.50
2019-03-20T22:52:38.595Z,12.50
2019-03-20T22:55:05.188Z,12.50
2019-03-20T22:57:32.010Z,12.20
2019-03-20T22:59:58.692Z,12.50
2019-03-20T23:02:25.370Z,12.50
2019-03-20T23:04:52.076Z,12.50
2019-03-20T23:07:18.762Z,12.40
2019-03-20T23:09:45.580Z,12.40
2019-03-20T23:12:12.284Z,12.40
2019-03-20T23:14:39.012Z,12.40
2019-03-20T23:17:05.594Z,12.40
2019-03-20T23:19:32.881Z,12.40
2019-03-20T23:21:59.473Z,12.40
2019-03-20T23:24:26.126Z,12.30
2019-03-20T23:26:52.701Z,12.30
2019-03-20T23:29:19.448Z,12.30
2019-03-20T23:31:46.207Z,12.30
2019-03-20T23:34:13.169Z,12.30
2019-03-20T23:36:39.790Z,12.20
2019-03-20T23:39:06.726Z,12.20
2019-03-20T23:41:33.391Z,12.20
2019-03-20T23:44:00.010Z,11.90
2019-03-20T23:46:26.741Z,12.20
2019-03-20T23:48:53.315Z,12.20
2019-03-20T23:51:19.941Z,12.10
2019-03-20T23:53:46.577Z,12.10
2019-03-20T23:56:13.207Z,12.10
2019-03-20T23:58:39.799Z,12.10
